Time;durP1;ratioP1;P1;durP2;ratioP2;P2;SDS_P1;SDS_P2;PMS_P1;PMS_P2;Temp;Humidity;BMP_temperature;BMP_pressure;BME280_temperature;BME280_humidity;BME280_pressure;Samples;Min_cycle;Max_cycle;Signal;HPM_P1;HPM_P2
2023/04/24 00:03:10;;;;;;;14.20;12.70;;;;;;;10.51;68.26;98584.38;436210;1254;139475;-56
2023/04/24 00:13:17;;;;;;;12.30;10.80;;;;;;;10.53;68.34;98579.34;436511;1250;139796;-56
2023/04/24 00:23:23;;;;;;;15.60;10.90;;;;;;;10.58;68.17;98572.48;436322;1250;139114;-58
2023/04/24 00:33:29;;;;;;;14.20;11.80;;;;;;;10.49;68.50;98558.66;436258;1250;140448;-58
2023/04/24 00:43:34;;;;;;;15.70;12.60;;;;;;;10.24;68.80;98556.38;436643;1251;139330;-57
2023/04/24 00:53:40;;;;;;;17.10;13.50;;;;;;;10.04;69.59;98551.81;436695;1254;139607;-57
2023/04/24 01:03:46;;;;;;;18.70;14.10;;;;;;;10.01;70.21;98546.27;436282;1251;139723;-58
2023/04/24 01:13:52;;;;;;;15.70;12.30;;;;;;;10.02;70.57;98541.34;436994;1250;140357;-59
2023/04/24 01:23:58;;;;;;;15.90;12.10;;;;;;;9.97;70.66;98534.20;436867;1251;141292;-59
2023/04/24 01:34:04;;;;;;;12.90;10.60;;;;;;;9.97;70.91;98526.14;436630;1250;139544;-59
2023/04/24 01:44:10;;;;;;;14.80;11.40;;;;;;;9.97;70.93;98515.17;436586;1251;141674;-58
2023/04/24 01:54:16;;;;;;;15.80;9.80;;;;;;;10.02;71.25;98503.23;436370;1254;141803;-58
2023/04/24 02:04:22;;;;;;;14.40;10.60;;;;;;;10.14;71.44;98496.70;436687;1250;139747;-59
2023/04/24 02:14:28;;;;;;;13.50;10.30;;;;;;;10.35;71.65;98493.57;436607;1251;141617;-57
2023/04/24 02:24:34;;;;;;;10.80;9.80;;;;;;;10.56;71.47;98487.04;436510;1250;142129;-56
2023/04/24 02:34:39;;;;;;;11.70;10.00;;;;;;;10.74;71.40;98480.86;436438;1251;140354;-58
2023/04/24 02:44:45;;;;;;;13.30;10.10;;;;;;;10.83;71.25;98471.20;436327;1254;139941;-64
2023/04/24 02:54:51;;;;;;;12.50;10.70;;;;;;;10.84;71.01;98465.90;436466;1251;139772;-58
2023/04/24 03:04:56;;;;;;;12.80;10.50;;;;;;;10.75;71.24;98455.02;436466;1251;139379;-57
2023/04/24 03:15:03;;;;;;;12.30;10.60;;;;;;;10.69;71.04;98459.27;436855;1251;139866;-61
2023/04/24 03:25:10;;;;;;;13.50;11.20;;;;;;;10.66;71.50;98460.15;436595;1251;140283;-57
2023/04/24 03:35:16;;;;;;;14.00;12.30;;;;;;;10.68;71.46;98458.95;436613;1254;141535;-57
2023/04/24 03:45:22;;;;;;;14.40;11.70;;;;;;;10.73;71.46;98459.59;436559;1251;140601;-58
2023/04/24 03:55:28;;;;;;;18.50;11.60;;;;;;;10.87;71.13;98458.80;436474;1253;139735;-58
2023/04/24 04:05:34;;;;;;;13.50;10.90;;;;;;;11.11;70.66;98465.71;436129;1251;140165;-58
2023/04/24 04:15:40;;;;;;;15.80;11.90;;;;;;;11.42;69.91;98469.08;436249;1251;141160;-58
2023/04/24 04:25:46;;;;;;;14.70;11.40;;;;;;;11.80;69.14;98473.92;436123;1254;140450;-59
2023/04/24 04:35:53;;;;;;;15.50;11.80;;;;;;;12.25;68.28;98475.35;437277;1250;140033;-58
2023/04/24 04:46:00;;;;;;;14.80;10.90;;;;;;;12.56;67.27;98471.81;437073;1250;140041;-58
2023/04/24 04:56:07;;;;;;;17.50;11.40;;;;;;;12.94;66.60;98474.06;436777;1251;139570;-59
2023/04/24 05:06:13;;;;;;;13.00;10.00;;;;;;;13.85;66.22;98465.59;436574;1254;139644;-58
2023/04/24 05:16:19;;;;;;;8.00;6.60;;;;;;;20.22;61.43;98458.23;437051;1254;140390;-58
2023/04/24 05:26:25;;;;;;;7.80;6.40;;;;;;;26.67;50.70;98450.76;436298;1254;139149;-57
2023/04/24 05:36:31;;;;;;;8.20;6.20;;;;;;;28.15;43.74;98452.05;436257;1251;138113;-57
2023/04/24 05:46:37;;;;;;;5.00;4.50;;;;;;;32.13;39.01;98447.23;436806;1254;138733;-57
2023/04/24 05:56:43;;;;;;;10.50;4.90;;;;;;;36.32;33.22;98437.80;436705;1251;138309;-56
2023/04/24 06:06:50;;;;;;;4.10;3.70;;;;;;;39.06;28.77;98435.97;436824;1254;138259;-58
2023/04/24 06:16:56;;;;;;;6.00;3.70;;;;;;;41.42;25.05;98429.56;437441;1254;139106;-58
2023/04/24 06:27:02;;;;;;;5.40;3.30;;;;;;;43.76;22.00;98422.98;436839;1254;139123;-57
2023/04/24 06:37:08;;;;;;;11.60;3.80;;;;;;;46.19;19.93;98410.23;436779;1254;138735;-61
2023/04/24 06:47:14;;;;;;;4.60;3.40;;;;;;;48.64;17.57;98403.85;436573;1251;138290;-57
2023/04/24 06:57:20;;;;;;;4.80;3.30;;;;;;;49.03;15.94;98394.92;436797;1256;138707;-57
2023/04/24 07:07:26;;;;;;;5.70;3.00;;;;;;;45.25;15.60;98383.09;437007;1256;138734;-61
2023/04/24 07:17:32;;;;;;;3.40;3.00;;;;;;;43.33;15.78;98380.67;436775;1254;169852;-58
2023/04/24 07:27:38;;;;;;;5.40;3.10;;;;;;;42.25;15.66;98377.84;437105;1251;139402;-58
2023/04/24 07:37:45;;;;;;;5.00;3.10;;;;;;;40.04;16.26;98374.63;437057;1256;138660;-59
2023/04/24 07:47:52;;;;;;;5.20;3.50;;;;;;;39.44;16.55;98376.27;437230;1251;138785;-58
2023/04/24 07:57:59;;;;;;;4.30;2.70;;;;;;;38.89;16.58;98373.63;437296;1250;138736;-60
2023/04/24 08:08:04;;;;;;;6.70;3.00;;;;;;;39.72;16.36;98369.70;436991;1250;138746;-58
2023/04/24 08:18:12;;;;;;;4.80;3.00;;;;;;;42.91;15.37;98363.67;437185;1255;139481;-59
2023/04/24 08:28:20;;;;;;;3.20;2.80;;;;;;;41.73;14.95;98358.08;437090;1251;138407;-58
2023/04/24 08:38:26;;;;;;;4.70;3.60;;;;;;;36.38;16.08;98349.42;437584;1254;138815;-58
2023/04/24 08:48:33;;;;;;;5.20;3.30;;;;;;;33.05;17.56;98346.00;436945;1251;138681;-60
2023/04/24 08:58:39;;;;;;;4.90;2.70;;;;;;;31.93;18.59;98345.09;437015;1255;138789;-59
2023/04/24 09:08:46;;;;;;;4.30;3.10;;;;;;;31.25;19.10;98344.41;437055;1256;138182;-58
2023/04/24 09:18:52;;;;;;;6.70;4.80;;;;;;;30.27;19.65;98342.59;436944;1251;138657;-58
2023/04/24 09:28:58;;;;;;;5.20;2.90;;;;;;;29.67;20.14;98339.86;437161;1254;138508;-58
2023/04/24 09:39:05;;;;;;;8.00;3.10;;;;;;;29.22;20.54;98340.48;437600;1251;138668;-60
2023/04/24 09:49:13;;;;;;;4.10;3.40;;;;;;;29.00;20.58;98332.92;437363;1254;138175;-58
2023/04/24 09:59:20;;;;;;;6.00;3.00;;;;;;;28.01;20.86;98322.11;437280;1256;138088;-59
2023/04/24 10:09:27;;;;;;;4.40;3.00;;;;;;;27.43;21.20;98318.27;437586;1250;138749;-60
2023/04/24 10:19:35;;;;;;;3.00;2.30;;;;;;;26.20;21.99;98317.49;437637;1255;138752;-58
2023/04/24 10:29:43;;;;;;;3.50;2.40;;;;;;;25.62;22.72;98309.23;437907;1256;138499;-60
2023/04/24 10:39:54;;;;;;;6.00;3.50;;;;;;;25.06;23.47;98304.02;437410;1256;138947;-59
2023/04/24 10:50:03;;;;;;;4.20;2.70;;;;;;;24.73;23.90;98296.39;437285;1256;138283;-62
2023/04/24 11:00:19;;;;;;;4.00;3.50;;;;;;;24.35;24.61;98285.65;437595;1255;138756;-58
2023/04/24 11:10:31;;;;;;;5.00;3.60;;;;;;;24.24;25.41;98274.56;437215;1254;138167;-59
2023/04/24 11:20:37;;;;;;;4.90;3.70;;;;;;;24.06;25.90;98274.36;436961;1255;138829;-58
2023/04/24 11:30:43;;;;;;;3.70;3.40;;;;;;;23.70;25.94;98274.48;436827;1251;139684;-58
2023/04/24 11:40:50;;;;;;;3.60;3.00;;;;;;;23.48;25.59;98280.93;436848;1256;139123;-58
2023/04/24 11:50:55;;;;;;;4.80;3.50;;;;;;;23.73;25.34;98274.22;437200;1255;139539;-58
2023/04/24 12:01:02;;;;;;;5.10;3.30;;;;;;;23.52;25.19;98271.14;437230;1254;138998;-58
2023/04/24 12:11:08;;;;;;;3.40;3.10;;;;;;;23.08;25.43;98254.69;436896;1255;139113;-59
2023/04/24 12:21:26;;;;;;;5.80;3.20;;;;;;;22.91;25.57;98245.33;436866;1256;139719;-60
2023/04/24 12:31:32;;;;;;;4.90;2.60;;;;;;;22.99;25.77;98238.21;437197;1257;138967;-58
2023/04/24 12:41:38;;;;;;;3.40;2.80;;;;;;;22.93;25.95;98234.09;436737;1254;139920;-59
2023/04/24 12:51:43;;;;;;;4.30;2.60;;;;;;;22.93;25.44;98214.16;436773;1254;139060;-58
2023/04/24 13:01:49;;;;;;;4.90;3.10;;;;;;;23.12;25.42;98202.45;436921;1254;139117;-58
2023/04/24 13:11:57;;;;;;;6.30;2.70;;;;;;;23.29;25.38;98192.14;437528;1254;139598;-58
2023/04/24 13:22:01;;;;;;;;;;;;;;;23.67;24.66;98174.67;436718;1251;138410;-57
2023/04/24 13:32:07;;;;;;;4.50;3.00;;;;;;;23.69;24.07;98155.05;436649;1255;125269;-58
2023/04/24 13:42:13;;;;;;;5.70;2.40;;;;;;;24.00;23.83;98139.58;436782;1252;138261;-58
2023/04/24 13:52:19;;;;;;;2.70;2.40;;;;;;;23.83;23.59;98131.08;436628;1254;139936;-58
2023/04/24 14:02:25;;;;;;;3.10;2.70;;;;;;;23.69;23.95;98121.08;437190;1251;140648;-58
2023/04/24 14:12:31;;;;;;;10.30;4.10;;;;;;;23.67;24.81;98117.02;436780;1254;138802;-57
2023/04/24 14:22:37;;;;;;;8.10;3.10;;;;;;;23.51;27.76;98116.08;436881;1254;141174;-58
2023/04/24 14:32:43;;;;;;;10.70;3.50;;;;;;;22.99;29.29;98113.17;437048;1251;139621;-58
2023/04/24 14:42:49;;;;;;;9.20;3.30;;;;;;;22.58;29.93;98106.51;437150;1251;138908;-58
2023/04/24 14:52:57;;;;;;;6.70;4.10;;;;;;;22.26;30.58;98093.81;436577;1251;139314;-58
2023/04/24 15:03:03;;;;;;;3.10;2.80;;;;;;;21.68;31.35;98081.73;436471;1250;139173;-58
2023/04/24 15:13:09;;;;;;;4.40;3.60;;;;;;;21.22;32.01;98074.75;436257;1251;139845;-57
2023/04/24 15:23:14;;;;;;;12.70;4.20;;;;;;;20.84;32.87;98073.23;435198;1251;140240;-58
2023/04/24 15:33:20;;;;;;;6.10;4.10;;;;;;;20.54;34.47;98086.70;435583;1254;140188;-57
2023/04/24 15:43:26;;;;;;;4.50;4.10;;;;;;;20.34;36.58;98094.14;436465;1254;138133;-57
2023/04/24 15:53:32;;;;;;;4.70;4.00;;;;;;;19.98;37.54;98103.17;436199;1251;138849;-58
2023/04/24 16:03:38;;;;;;;5.70;4.30;;;;;;;19.67;37.97;98120.92;435985;1251;140396;-60
2023/04/24 16:13:44;;;;;;;7.10;4.30;;;;;;;19.29;38.47;98123.48;436322;1254;138427;-61
2023/04/24 16:23:50;;;;;;;12.00;6.00;;;;;;;18.74;39.75;98134.73;436476;1254;138371;-61
2023/04/24 16:33:55;;;;;;;8.40;5.10;;;;;;;18.09;40.79;98157.03;436296;1251;138851;-60
2023/04/24 16:44:01;;;;;;;6.30;4.20;;;;;;;17.63;41.45;98164.31;436303;1251;139241;-60
2023/04/24 16:54:07;;;;;;;6.50;4.20;;;;;;;17.08;42.21;98175.54;436965;1251;139047;-63
2023/04/24 17:04:13;;;;;;;7.00;4.30;;;;;;;16.63;43.48;98186.00;436483;1251;138517;-61
2023/04/24 17:14:18;;;;;;;7.50;5.50;;;;;;;16.29;44.73;98189.60;436599;1251;138971;-61
2023/04/24 17:24:24;;;;;;;10.30;5.40;;;;;;;15.91;45.70;98191.27;436558;1254;139752;-61
2023/04/24 17:34:30;;;;;;;7.60;4.80;;;;;;;15.49;46.70;98196.02;436407;1251;139364;-61
2023/04/24 17:44:36;;;;;;;8.20;4.60;;;;;;;15.17;47.76;98208.20;436665;1251;139444;-61
2023/04/24 17:54:41;;;;;;;6.60;4.60;;;;;;;14.85;48.77;98206.41;436742;1251;139512;-61
2023/04/24 18:04:47;;;;;;;9.80;6.20;;;;;;;14.51;49.78;98217.61;436971;1254;138956;-62
2023/04/24 18:14:54;;;;;;;8.60;6.20;;;;;;;14.20;50.97;98233.95;436690;1250;138330;-61
2023/04/24 18:25:25;;;;;;;6.00;5.50;;;;;;;13.84;52.18;98242.90;437035;1251;138759;-61
2023/04/24 18:35:31;;;;;;;29.90;9.30;;;;;;;13.63;53.27;98251.46;436870;1254;138752;-61
2023/04/24 18:45:36;;;;;;;13.30;9.00;;;;;;;13.36;54.50;98267.61;436703;1250;138897;-59
2023/04/24 18:55:42;;;;;;;42.10;17.70;;;;;;;13.14;55.71;98282.45;436860;1254;139437;-62
2023/04/24 19:05:48;;;;;;;41.40;18.00;;;;;;;13.01;56.70;98290.74;436898;1254;138576;-62
2023/04/24 19:15:54;;;;;;;12.50;10.30;;;;;;;12.91;57.52;98303.41;436402;1251;139095;-62
2023/04/24 19:26:00;;;;;;;12.20;8.80;;;;;;;12.92;58.18;98309.87;436415;1251;138788;-65
2023/04/24 19:36:06;;;;;;;17.20;10.60;;;;;;;12.92;58.74;98313.86;436760;1251;138567;-67
2023/04/24 19:46:13;;;;;;;11.50;10.30;;;;;;;12.85;59.42;98315.61;437105;1251;139269;-64
2023/04/24 19:56:19;;;;;;;13.60;9.70;;;;;;;12.87;60.09;98319.16;436761;1254;139107;-64
2023/04/24 20:06:25;;;;;;;12.20;11.00;;;;;;;12.98;60.97;98330.75;437181;1254;138669;-66
2023/04/24 20:16:31;;;;;;;13.30;11.90;;;;;;;12.98;63.06;98330.72;436740;1250;138899;-66
2023/04/24 20:26:37;;;;;;;12.10;10.60;;;;;;;12.75;65.31;98312.84;436682;1253;140426;-67
2023/04/24 20:36:43;;;;;;;9.30;8.40;;;;;;;12.50;67.24;98302.31;436748;1254;141449;-68
2023/04/24 20:46:55;;;;;;;8.40;7.60;;;;;;;12.29;68.60;98310.70;436601;1251;139633;-68
2023/04/24 20:57:01;;;;;;;7.70;6.90;;;;;;;12.07;69.86;98317.40;436945;1251;140008;-66
2023/04/24 21:07:08;;;;;;;5.70;5.10;;;;;;;11.87;70.71;98307.60;436667;1254;139386;-67
2023/04/24 21:17:14;;;;;;;6.90;5.50;;;;;;;11.80;71.42;98304.89;436357;1254;139868;-66
2023/04/24 21:27:19;;;;;;;4.80;4.30;;;;;;;11.74;71.96;98312.77;436573;1254;140149;-66
2023/04/24 21:37:25;;;;;;;7.60;5.50;;;;;;;11.61;72.39;98317.60;436879;1250;138990;-67
2023/04/24 21:47:32;;;;;;;8.20;5.10;;;;;;;11.61;73.22;98308.86;436511;1251;138943;-67
2023/04/24 21:57:38;;;;;;;6.20;5.40;;;;;;;11.59;73.62;98319.02;436419;1251;140592;-64
2023/04/24 22:07:45;;;;;;;5.60;4.60;;;;;;;11.50;74.32;98319.17;436102;1251;139083;-65
2023/04/24 22:17:56;;;;;;;6.20;4.90;;;;;;;11.22;75.06;98317.49;436601;1250;139274;-66
2023/04/24 22:28:02;;;;;;;5.60;4.70;;;;;;;11.16;76.03;98315.77;436480;1250;140878;-66
2023/04/24 22:38:08;;;;;;;19.20;8.30;;;;;;;11.15;76.50;98310.58;436483;1250;140164;-66
2023/04/24 22:48:15;;;;;;;6.20;5.60;;;;;;;11.08;76.83;98322.60;436474;1251;139699;-62
2023/04/24 22:58:21;;;;;;;5.20;4.70;;;;;;;11.01;77.60;98326.35;436660;1254;139828;-60
2023/04/24 23:08:27;;;;;;;9.90;4.90;;;;;;;10.90;77.97;98332.11;436741;1251;139401;-61
2023/04/24 23:18:32;;;;;;;5.00;4.60;;;;;;;10.75;78.20;98340.58;436734;1251;139787;-61
2023/04/24 23:28:39;;;;;;;5.90;4.50;;;;;;;10.74;78.79;98342.27;436543;1251;139036;-61
2023/04/24 23:38:45;;;;;;;4.80;4.30;;;;;;;10.73;78.92;98346.17;436396;1250;140586;-61
2023/04/24 23:48:55;;;;;;;5.80;5.20;;;;;;;10.61;79.53;98339.00;436937;1254;140485;-61
2023/04/24 23:59:01;;;;;;;6.90;5.10;;;;;;;10.50;80.17;98328.35;436724;1254;140587;-60
